createdAt,value
2023-05-15T00:00:15.864Z,18.73
2023-05-15T00:02:44.855Z,21.73
2023-05-15T00:05:14.042Z,18.33
2023-05-15T00:07:41.190Z,13.90
2023-05-15T00:10:08.886Z,17.27
2023-05-15T00:12:36.891Z,15.90
2023-05-15T00:15:04.208Z,13.45
2023-05-15T00:17:31.302Z,16.35
2023-05-15T00:19:59.794Z,21.00
2023-05-15T00:22:27.214Z,19.83
2023-05-15T00:24:54.324Z,13.35
2023-05-15T00:27:21.418Z,14.77
2023-05-15T00:29:48.424Z,14.52
2023-05-15T00:32:15.757Z,21.40
2023-05-15T00:34:42.752Z,23.38
2023-05-15T00:37:09.890Z,14.50
2023-05-15T00:39:38.664Z,17.35
2023-05-15T00:42:06.000Z,15.48
2023-05-15T00:44:33.294Z,13.68
2023-05-15T00:47:00.592Z,14.48
2023-05-15T00:49:29.577Z,21.90
2023-05-15T00:52:02.010Z,16.50
2023-05-15T00:54:29.793Z,22.50
2023-05-15T00:57:00.031Z,17.58
2023-05-15T00:59:28.405Z,27.35
2023-05-15T01:01:55.491Z,18.05
2023-05-15T01:04:22.884Z,20.60
2023-05-15T01:06:50.154Z,18.73
2023-05-15T01:09:17.269Z,13.45
2023-05-15T01:11:44.215Z,24.80
2023-05-15T01:14:11.273Z,23.63
2023-05-15T01:16:39.118Z,15.25
2023-05-15T01:19:06.607Z,20.83
2023-05-15T01:21:37.952Z,26.55
2023-05-15T01:24:41.900Z,18.50
2023-05-15T01:27:37.328Z,17.60
2023-05-15T01:30:08.136Z,23.38
2023-05-15T01:32:51.412Z,19.50
2023-05-15T01:35:29.764Z,14.77
2023-05-15T01:38:07.388Z,18.80
2023-05-15T01:40:34.418Z,21.10
2023-05-15T01:43:03.841Z,21.65
2023-05-15T01:45:30.949Z,19.42
2023-05-15T01:47:57.941Z,14.88
2023-05-15T01:50:27.914Z,23.02
2023-05-15T01:52:56.447Z,22.20
2023-05-15T01:55:27.223Z,16.45
2023-05-15T01:57:54.604Z,27.95
2023-05-15T02:00:21.850Z,17.00
2023-05-15T02:02:49.521Z,17.45
2023-05-15T02:05:19.014Z,27.52
2023-05-15T02:07:47.290Z,15.50
2023-05-15T02:10:15.439Z,20.42
2023-05-15T02:12:47.027Z,22.92
2023-05-15T02:15:14.093Z,18.13
2023-05-15T02:17:41.363Z,18.00
2023-05-15T02:20:09.119Z,18.27
2023-05-15T02:22:38.252Z,22.00
2023-05-15T02:25:06.110Z,22.90
2023-05-15T02:27:51.932Z,23.58
2023-05-15T02:30:38.841Z,20.63
2023-05-15T02:33:21.932Z,25.48
2023-05-15T02:35:53.367Z,22.02
2023-05-15T02:38:24.104Z,18.67
2023-05-15T02:40:52.989Z,18.92
2023-05-15T02:43:20.353Z,23.30
2023-05-15T02:45:48.078Z,21.55
2023-05-15T02:48:15.939Z,21.17
2023-05-15T02:50:43.701Z,17.80
2023-05-15T02:53:10.911Z,23.48
2023-05-15T02:55:38.532Z,24.15
2023-05-15T02:58:05.850Z,18.58
2023-05-15T03:00:33.897Z,25.23
2023-05-15T03:03:01.035Z,18.67
2023-05-15T03:05:28.433Z,22.35
2023-05-15T03:07:56.881Z,21.10
2023-05-15T03:10:27.485Z,22.60
2023-05-15T03:12:58.358Z,21.65
2023-05-15T03:15:26.314Z,20.80
2023-05-15T03:17:53.745Z,26.05
2023-05-15T03:20:20.816Z,16.70
2023-05-15T03:22:47.858Z,20.65
2023-05-15T03:25:15.804Z,24.90
2023-05-15T03:27:43.018Z,21.75
2023-05-15T03:30:10.699Z,26.17
2023-05-15T03:32:37.902Z,17.60
2023-05-15T03:35:05.857Z,21.00
2023-05-15T03:37:33.085Z,20.55
2023-05-15T03:40:00.602Z,27.52
2023-05-15T03:42:29.228Z,23.95
2023-05-15T03:44:56.783Z,18.27
2023-05-15T03:47:24.411Z,17.42
2023-05-15T03:49:53.121Z,22.58
2023-05-15T03:52:20.117Z,17.23
2023-05-15T03:54:47.225Z,21.42
2023-05-15T03:57:14.266Z,96.30
2023-05-15T03:59:41.544Z,17.88
2023-05-15T04:02:08.681Z,20.67
2023-05-15T04:04:35.902Z,19.90
2023-05-15T04:07:02.981Z,23.05
2023-05-15T04:09:29.984Z,19.25
2023-05-15T04:11:57.016Z,20.35
2023-05-15T04:14:24.082Z,22.45
2023-05-15T04:16:51.150Z,18.10
2023-05-15T04:19:19.079Z,21.30
2023-05-15T04:21:46.224Z,18.65
2023-05-15T04:24:13.200Z,21.35
2023-05-15T04:26:40.362Z,22.08
2023-05-15T04:29:07.742Z,22.15
2023-05-15T04:31:35.184Z,20.77
2023-05-15T04:34:03.999Z,20.00
2023-05-15T04:36:31.839Z,20.67
2023-05-15T04:38:59.347Z,19.83
2023-05-15T04:41:26.958Z,20.77
2023-05-15T04:43:54.649Z,24.55
2023-05-15T04:46:21.784Z,20.35
2023-05-15T04:48:49.855Z,19.92
2023-05-15T04:51:16.906Z,18.70
2023-05-15T04:53:43.937Z,19.55
2023-05-15T04:56:11.304Z,18.95
2023-05-15T04:58:38.296Z,19.15
2023-05-15T05:01:05.615Z,21.10
2023-05-15T05:03:32.846Z,21.17
2023-05-15T05:06:00.564Z,25.08
2023-05-15T05:08:27.520Z,19.13
2023-05-15T05:10:58.002Z,19.85
2023-05-15T05:13:24.992Z,19.80
2023-05-15T05:15:52.105Z,17.55
2023-05-15T05:18:19.292Z,18.02
2023-05-15T05:20:47.075Z,17.20
2023-05-15T05:23:15.113Z,19.20
2023-05-15T05:25:42.167Z,17.45
2023-05-15T05:28:09.169Z,18.13
2023-05-15T05:30:36.445Z,19.50
2023-05-15T05:33:03.844Z,17.67
2023-05-15T05:35:31.527Z,21.77
2023-05-15T05:37:58.607Z,19.92
2023-05-15T05:40:25.949Z,17.92
2023-05-15T05:42:53.532Z,19.42
2023-05-15T05:45:20.887Z,17.20
2023-05-15T05:47:49.196Z,17.55
2023-05-15T05:50:16.190Z,16.92
2023-05-15T05:52:43.233Z,17.58
2023-05-15T05:55:10.794Z,17.30
2023-05-15T05:57:40.440Z,16.60
2023-05-15T06:00:10.997Z,15.43
2023-05-15T06:02:39.213Z,16.52
2023-05-15T06:05:07.417Z,15.90
2023-05-15T06:07:35.370Z,15.23
2023-05-15T06:10:02.914Z,17.60
2023-05-15T06:12:29.960Z,17.98
2023-05-15T06:14:57.042Z,17.05
2023-05-15T06:17:24.070Z,15.00
2023-05-15T06:19:52.165Z,13.30
2023-05-15T06:22:19.888Z,14.38
2023-05-15T06:24:47.001Z,15.82
2023-05-15T06:27:14.081Z,14.48
2023-05-15T06:29:41.198Z,13.80
2023-05-15T06:32:08.397Z,14.30
2023-05-15T06:34:35.490Z,14.82
2023-05-15T06:37:03.051Z,16.13
2023-05-15T06:39:30.833Z,13.32
2023-05-15T06:42:01.809Z,14.65
2023-05-15T06:44:31.066Z,13.20
2023-05-15T06:46:58.809Z,14.23
2023-05-15T06:49:25.925Z,12.40
2023-05-15T06:51:53.033Z,16.98
2023-05-15T06:54:20.002Z,15.57
2023-05-15T06:56:47.175Z,15.80
2023-05-15T06:59:14.224Z,15.10
2023-05-15T07:01:41.554Z,12.27
2023-05-15T07:04:08.796Z,16.55
2023-05-15T07:06:37.670Z,12.00
2023-05-15T07:09:04.687Z,15.00
2023-05-15T07:11:33.801Z,14.13
2023-05-15T07:14:02.340Z,12.88
2023-05-15T07:16:29.694Z,12.98
2023-05-15T07:18:56.928Z,16.05
2023-05-15T07:21:23.919Z,13.25
2023-05-15T07:23:51.326Z,12.10
2023-05-15T07:26:28.700Z,13.23
2023-05-15T07:28:59.823Z,12.73
2023-05-15T07:31:27.092Z,16.23
2023-05-15T07:33:54.801Z,11.40
2023-05-15T07:36:22.362Z,14.38
2023-05-15T07:40:06.925Z,17.02
2023-05-15T07:42:27.757Z,15.00
2023-05-15T07:44:55.876Z,16.05
2023-05-15T07:47:23.567Z,12.85
2023-05-15T07:49:50.947Z,13.90
2023-05-15T07:52:19.857Z,15.35
2023-05-15T07:54:46.904Z,12.05
2023-05-15T07:57:14.442Z,16.10
2023-05-15T07:59:41.501Z,14.20
2023-05-15T08:02:08.537Z,11.13
2023-05-15T08:04:35.999Z,10.27
2023-05-15T08:07:03.264Z,10.43
2023-05-15T08:09:30.844Z,10.45
2023-05-15T08:12:14.174Z,10.73
2023-05-15T08:14:41.307Z,10.45
2023-05-15T08:17:08.560Z,10.20
2023-05-15T08:19:36.032Z,10.73
2023-05-15T08:22:03.533Z,12.18
2023-05-15T08:24:30.727Z,10.18
2023-05-15T08:26:57.875Z,11.30
2023-05-15T08:29:25.085Z,9.70
2023-05-15T08:31:52.739Z,10.65
2023-05-15T08:34:22.587Z,9.15
2023-05-15T08:36:49.625Z,10.48
2023-05-15T08:39:16.568Z,10.48
2023-05-15T08:42:08.920Z,10.55
2023-05-15T08:44:36.738Z,10.43
2023-05-15T08:47:05.172Z,10.13
2023-05-15T08:49:42.263Z,8.55
2023-05-15T08:52:09.834Z,9.32
2023-05-15T08:54:36.874Z,10.23
2023-05-15T08:57:03.983Z,11.63
2023-05-15T08:59:31.033Z,10.13
2023-05-15T09:01:58.159Z,11.82
2023-05-15T09:04:25.519Z,8.30
2023-05-15T09:06:56.145Z,8.65
2023-05-15T09:09:23.727Z,10.10
2023-05-15T09:11:50.887Z,9.38
2023-05-15T09:14:18.591Z,9.93
2023-05-15T09:16:49.552Z,8.95
2023-05-15T09:19:19.592Z,11.65
2023-05-15T09:21:46.690Z,9.98
2023-05-15T09:24:24.953Z,10.98
2023-05-15T09:27:06.872Z,9.00
2023-05-15T09:29:35.789Z,8.63
2023-05-15T09:32:14.075Z,9.32
2023-05-15T09:34:42.856Z,9.45
2023-05-15T09:37:11.286Z,7.97
2023-05-15T09:39:45.095Z,9.95
2023-05-15T09:42:13.384Z,11.23
2023-05-15T09:44:43.909Z,10.05
2023-05-15T09:47:12.087Z,10.40
2023-05-15T09:49:39.282Z,11.10
2023-05-15T09:52:09.814Z,8.68
2023-05-15T09:54:37.847Z,8.27
2023-05-15T09:57:11.897Z,8.25
2023-05-15T10:02:32.738Z,7.55
2023-05-15T10:05:00.058Z,5.72
2023-05-15T10:07:34.894Z,5.65
2023-05-15T10:10:02.849Z,3.70
2023-05-15T10:12:32.161Z,3.92
2023-05-15T10:15:00.932Z,3.58
2023-05-15T10:17:28.740Z,3.67
2023-05-15T10:19:58.679Z,4.80
2023-05-15T10:22:30.601Z,4.20
2023-05-15T10:25:15.961Z,3.60
2023-05-15T10:27:43.396Z,3.17
2023-05-15T10:30:11.307Z,2.50
2023-05-15T10:32:42.032Z,3.75
2023-05-15T10:35:12.398Z,2.67
2023-05-15T10:37:39.933Z,2.03
2023-05-15T10:40:10.829Z,2.65
2023-05-15T10:42:38.513Z,2.65
2023-05-15T10:45:06.888Z,2.42
2023-05-15T10:47:33.897Z,3.30
2023-05-15T10:50:01.481Z,3.22
2023-05-15T10:52:28.601Z,3.17
2023-05-15T10:54:56.836Z,2.25
2023-05-15T10:57:24.053Z,2.80
2023-05-15T10:59:51.616Z,1.70
2023-05-15T11:02:26.069Z,2.78
2023-05-15T11:04:57.481Z,3.30
2023-05-15T11:07:24.681Z,2.80
2023-05-15T11:09:53.030Z,1.85
2023-05-15T11:12:20.878Z,3.30
2023-05-15T11:14:57.782Z,2.92
2023-05-15T11:17:24.944Z,4.43
2023-05-15T11:19:52.656Z,1.95
2023-05-15T11:22:40.699Z,3.00
2023-05-15T11:25:15.999Z,2.95
2023-05-15T11:27:44.495Z,3.97
2023-05-15T11:30:15.932Z,3.67
2023-05-15T11:32:45.979Z,2.50
2023-05-15T11:35:28.038Z,2.10
2023-05-15T11:38:11.870Z,3.15
2023-05-15T11:40:47.307Z,2.58
2023-05-15T11:43:27.829Z,2.20
2023-05-15T11:45:57.904Z,2.00
2023-05-15T11:48:30.452Z,2.80
2023-05-15T11:50:58.708Z,2.15
2023-05-15T11:53:26.713Z,2.72
2023-05-15T11:55:55.802Z,2.38
2023-05-15T11:58:24.259Z,2.80
2023-05-15T12:00:52.166Z,2.10
2023-05-15T12:03:23.000Z,2.67
2023-05-15T12:05:58.988Z,2.15
2023-05-15T12:08:35.582Z,2.22
2023-05-15T12:11:03.017Z,2.67
2023-05-15T12:13:31.268Z,2.63
2023-05-15T12:15:58.849Z,2.20
2023-05-15T12:18:26.172Z,1.95
2023-05-15T12:20:53.990Z,2.30
2023-05-15T12:23:22.593Z,2.45
2023-05-15T12:25:50.892Z,2.72
2023-05-15T12:28:18.582Z,2.67
2023-05-15T12:30:46.066Z,2.83
2023-05-15T12:33:13.082Z,1.90
2023-05-15T12:35:44.916Z,1.40
2023-05-15T12:38:16.135Z,1.75
2023-05-15T12:40:44.009Z,1.58
2023-05-15T12:43:11.157Z,1.77
2023-05-15T12:45:38.823Z,2.53
2023-05-15T12:48:08.841Z,1.60
2023-05-15T12:50:36.159Z,1.70
2023-05-15T12:53:04.486Z,1.52
2023-05-15T12:55:33.892Z,1.88
2023-05-15T12:58:02.360Z,2.05
2023-05-15T13:00:31.953Z,2.03
2023-05-15T13:02:59.507Z,1.67
2023-05-15T13:05:27.272Z,1.80
2023-05-15T13:07:55.364Z,2.03
2023-05-15T13:10:23.839Z,1.70
2023-05-15T13:12:54.897Z,1.70
2023-05-15T13:15:26.733Z,1.52
2023-05-15T13:18:04.403Z,1.50
2023-05-15T13:20:39.280Z,1.70
2023-05-15T13:23:06.494Z,2.13
2023-05-15T13:25:33.626Z,1.73
2023-05-15T13:28:02.248Z,1.52
2023-05-15T13:30:31.025Z,1.85
2023-05-15T13:32:58.126Z,1.63
2023-05-15T13:35:25.193Z,1.50
2023-05-15T13:37:52.755Z,2.20
2023-05-15T13:40:19.907Z,2.50
2023-05-15T13:42:46.955Z,2.13
2023-05-15T13:45:15.161Z,2.00
2023-05-15T13:47:43.249Z,1.85
2023-05-15T13:50:11.594Z,1.80
2023-05-15T13:52:38.759Z,1.45
2023-05-15T13:55:06.506Z,1.58
2023-05-15T13:57:33.909Z,1.20
2023-05-15T14:00:00.986Z,1.52
2023-05-15T14:02:28.766Z,1.55
2023-05-15T14:04:55.972Z,1.67
2023-05-15T14:07:23.554Z,1.20
2023-05-15T14:09:52.226Z,1.30
2023-05-15T14:12:19.411Z,1.65
2023-05-15T14:14:47.085Z,1.17
2023-05-15T14:17:15.074Z,1.20
2023-05-15T14:19:42.226Z,1.30
2023-05-15T14:22:09.543Z,1.50
2023-05-15T14:24:36.689Z,1.50
2023-05-15T14:27:04.680Z,1.35
2023-05-15T14:29:31.915Z,1.40
2023-05-15T14:31:59.722Z,1.48
2023-05-15T14:34:27.161Z,1.30
2023-05-15T14:36:54.227Z,1.30
2023-05-15T14:39:21.427Z,1.17
2023-05-15T14:41:49.454Z,1.10
2023-05-15T14:44:16.581Z,1.10
2023-05-15T14:46:43.746Z,1.20
2023-05-15T14:49:11.017Z,1.15
2023-05-15T14:51:38.057Z,1.17
2023-05-15T14:54:05.483Z,1.50
2023-05-15T14:56:33.271Z,1.02
2023-05-15T14:59:00.760Z,1.23
2023-05-15T15:01:27.784Z,1.27
2023-05-15T15:03:55.456Z,1.20
2023-05-15T15:06:22.818Z,1.65
2023-05-15T15:08:50.786Z,1.25
2023-05-15T15:11:18.493Z,1.15
2023-05-15T15:13:45.631Z,1.13
2023-05-15T15:16:12.678Z,1.25
2023-05-15T15:18:40.410Z,1.42
2023-05-15T15:21:09.166Z,1.10
2023-05-15T15:23:36.503Z,1.40
2023-05-15T15:26:03.662Z,1.02
2023-05-15T15:28:33.714Z,1.67
2023-05-15T15:31:01.624Z,0.90
2023-05-15T15:33:29.570Z,1.00
2023-05-15T15:35:56.568Z,0.88
2023-05-15T15:38:24.542Z,1.02
2023-05-15T15:40:51.589Z,0.88
2023-05-15T15:43:21.828Z,1.00
2023-05-15T15:45:48.896Z,1.05
2023-05-15T15:48:17.740Z,1.20
2023-05-15T15:50:44.810Z,1.10
2023-05-15T15:53:11.849Z,1.13
2023-05-15T15:55:39.519Z,0.90
2023-05-15T15:58:07.059Z,0.98
2023-05-15T16:00:34.094Z,1.17
2023-05-15T16:03:01.158Z,1.02
2023-05-15T16:05:29.197Z,1.08
2023-05-15T16:07:56.410Z,1.00
2023-05-15T16:10:24.865Z,1.08
2023-05-15T16:12:52.004Z,1.50
2023-05-15T16:15:23.199Z,1.40
2023-05-15T16:17:53.468Z,1.17
2023-05-15T16:20:22.286Z,1.10
2023-05-15T16:22:49.996Z,1.00
2023-05-15T16:25:17.551Z,1.30
2023-05-15T16:27:44.555Z,1.40
2023-05-15T16:30:12.251Z,2.20
2023-05-15T16:32:40.479Z,1.73
2023-05-15T16:35:08.411Z,2.00
2023-05-15T16:37:35.654Z,1.15
2023-05-15T16:40:04.527Z,1.02
2023-05-15T16:42:38.867Z,1.27
2023-05-15T16:45:08.906Z,1.50
2023-05-15T16:47:38.276Z,1.83
2023-05-15T16:50:07.070Z,2.30
2023-05-15T16:52:34.608Z,1.50
2023-05-15T16:55:03.419Z,1.05
2023-05-15T16:57:33.454Z,1.10
2023-05-15T17:00:00.683Z,1.40
2023-05-15T17:02:28.222Z,1.35
2023-05-15T17:04:55.389Z,1.35
2023-05-15T17:07:23.151Z,1.10
2023-05-15T17:09:50.754Z,1.20
2023-05-15T17:12:17.903Z,1.20
2023-05-15T17:14:44.914Z,1.20
2023-05-15T17:17:12.139Z,1.20
2023-05-15T17:19:42.170Z,1.17
2023-05-15T17:22:09.439Z,0.98
2023-05-15T17:24:49.892Z,1.27
2023-05-15T17:27:18.524Z,1.10
2023-05-15T17:29:46.213Z,1.20
2023-05-15T17:32:13.626Z,1.23
2023-05-15T17:34:40.810Z,1.40
2023-05-15T17:37:09.129Z,1.50
2023-05-15T17:39:36.249Z,1.42
2023-05-15T17:42:03.947Z,1.20
2023-05-15T17:44:31.149Z,1.23
2023-05-15T17:46:58.899Z,1.20
2023-05-15T17:49:26.711Z,1.20
2023-05-15T17:51:53.944Z,1.20
2023-05-15T17:54:21.365Z,1.25
2023-05-15T17:56:48.870Z,1.27
2023-05-15T17:59:16.133Z,1.20
2023-05-15T18:01:43.288Z,1.40
2023-05-15T18:04:10.539Z,1.40
2023-05-15T18:06:40.151Z,1.63
2023-05-15T18:09:08.077Z,1.40
2023-05-15T18:11:36.423Z,1.10
2023-05-15T18:14:03.676Z,1.25
2023-05-15T18:16:32.717Z,1.45
2023-05-15T18:19:00.036Z,1.70
2023-05-15T18:21:27.822Z,1.73
2023-05-15T18:23:54.883Z,1.80
2023-05-15T18:26:22.263Z,1.70
2023-05-15T18:28:49.808Z,1.70
2023-05-15T18:31:16.876Z,1.58
2023-05-15T18:33:45.008Z,1.10
2023-05-15T18:36:12.484Z,1.73
2023-05-15T18:38:39.611Z,1.75
2023-05-15T18:41:07.815Z,2.25
2023-05-15T18:43:35.763Z,1.73
2023-05-15T18:46:03.407Z,1.30
2023-05-15T18:48:34.003Z,1.80
2023-05-15T18:51:01.082Z,1.83
2023-05-15T18:53:28.881Z,1.55
2023-05-15T18:55:56.440Z,2.10
2023-05-15T18:58:24.364Z,1.95
2023-05-15T19:00:52.085Z,2.20
2023-05-15T19:03:21.146Z,2.45
2023-05-15T19:05:48.669Z,1.90
2023-05-15T19:08:18.477Z,1.92
2023-05-15T19:10:48.985Z,2.30
2023-05-15T19:13:19.247Z,2.17
2023-05-15T19:15:53.083Z,2.42
2023-05-15T19:18:20.253Z,2.00
2023-05-15T19:20:51.904Z,2.00
2023-05-15T19:23:21.393Z,2.40
2023-05-15T19:25:51.049Z,2.10
2023-05-15T19:28:18.135Z,2.58
2023-05-15T19:30:45.242Z,2.72
2023-05-15T19:33:13.378Z,2.20
2023-05-15T19:35:41.426Z,2.45
2023-05-15T19:38:08.539Z,2.83
2023-05-15T19:40:36.627Z,2.78
2023-05-15T19:43:04.714Z,3.17
2023-05-15T19:45:32.851Z,2.90
2023-05-15T19:48:01.345Z,2.75
2023-05-15T19:50:28.630Z,2.92
2023-05-15T19:52:55.945Z,3.15
2023-05-15T19:55:23.000Z,3.30
2023-05-15T19:57:51.251Z,3.60
2023-05-15T20:00:19.566Z,3.53
2023-05-15T20:02:47.570Z,2.55
2023-05-15T20:05:15.523Z,3.47
2023-05-15T20:07:43.267Z,2.90
2023-05-15T20:10:10.596Z,3.30
2023-05-15T20:12:45.674Z,3.00
2023-05-15T20:15:14.166Z,3.40
2023-05-15T20:17:41.853Z,3.15
2023-05-15T20:20:12.665Z,3.40
2023-05-15T20:22:44.366Z,3.07
2023-05-15T20:25:11.531Z,3.55
2023-05-15T20:27:38.749Z,3.50
2023-05-15T20:30:06.549Z,3.47
2023-05-15T20:32:33.953Z,3.70
2023-05-15T20:35:01.881Z,3.22
2023-05-15T20:37:31.208Z,3.58
2023-05-15T20:39:58.833Z,3.22
2023-05-15T20:42:27.213Z,3.50
2023-05-15T20:44:54.228Z,3.20
2023-05-15T20:47:21.828Z,3.38
2023-05-15T20:49:49.296Z,2.90
2023-05-15T20:52:16.325Z,3.20
2023-05-15T20:54:45.498Z,3.17
2023-05-15T20:57:12.548Z,3.17
2023-05-15T20:59:39.619Z,2.78
2023-05-15T21:02:06.903Z,3.13
2023-05-15T21:04:36.196Z,3.38
2023-05-15T21:07:03.895Z,3.22
2023-05-15T21:09:33.816Z,2.90
2023-05-15T21:12:01.102Z,2.83
2023-05-15T21:14:28.958Z,3.15
2023-05-15T21:16:56.033Z,3.20
2023-05-15T21:19:24.106Z,2.75
2023-05-15T21:21:51.446Z,3.10
2023-05-15T21:24:18.507Z,3.28
2023-05-15T21:26:45.815Z,3.03
2023-05-15T21:29:12.950Z,2.63
2023-05-15T21:31:40.148Z,2.70
2023-05-15T21:34:08.285Z,2.58
2023-05-15T21:36:35.779Z,3.22
2023-05-15T21:39:03.465Z,3.10
2023-05-15T21:41:30.786Z,3.17
2023-05-15T21:43:57.993Z,3.20
2023-05-15T21:46:25.901Z,3.83
2023-05-15T21:48:53.013Z,3.30
2023-05-15T21:51:20.513Z,3.58
2023-05-15T21:53:47.587Z,4.18
2023-05-15T21:56:14.619Z,4.93
2023-05-15T21:58:41.663Z,3.83
2023-05-15T22:01:08.680Z,3.13
2023-05-15T22:03:35.964Z,3.70
2023-05-15T22:06:04.011Z,5.35
2023-05-15T22:08:31.751Z,3.55
2023-05-15T22:10:58.742Z,4.90
2023-05-15T22:13:25.836Z,3.85
2023-05-15T22:15:52.861Z,3.83
2023-05-15T22:18:19.977Z,5.43
2023-05-15T22:20:50.936Z,3.53
2023-05-15T22:23:20.962Z,4.50
2023-05-15T22:25:49.298Z,4.78
2023-05-15T22:28:16.550Z,4.55
2023-05-15T22:30:43.513Z,5.35
2023-05-15T22:33:10.854Z,10.65
2023-05-15T22:35:38.143Z,6.90
2023-05-15T22:38:07.254Z,8.52
2023-05-15T22:40:34.322Z,4.95
2023-05-15T22:43:04.671Z,4.45
2023-05-15T22:45:32.924Z,5.18
2023-05-15T22:48:01.658Z,5.25
2023-05-15T22:50:28.993Z,5.75
2023-05-15T22:52:56.144Z,5.30
2023-05-15T22:55:23.822Z,10.18
2023-05-15T22:57:50.964Z,7.32
2023-05-15T23:00:19.179Z,9.00
2023-05-15T23:02:46.325Z,6.13
2023-05-15T23:05:13.525Z,6.03
2023-05-15T23:07:40.609Z,8.07
2023-05-15T23:10:08.131Z,5.57
2023-05-15T23:12:35.633Z,5.28
2023-05-15T23:15:02.821Z,5.82
2023-05-15T23:17:29.958Z,6.53
2023-05-15T23:19:56.961Z,5.68
2023-05-15T23:22:24.862Z,6.80
2023-05-15T23:24:52.859Z,8.93
2023-05-15T23:27:19.899Z,10.43
2023-05-15T23:29:46.938Z,11.13
2023-05-15T23:32:14.037Z,9.45
2023-05-15T23:34:41.154Z,7.53
2023-05-15T23:37:08.170Z,7.60
2023-05-15T23:39:36.734Z,7.95
2023-05-15T23:42:03.919Z,8.82
2023-05-15T23:44:31.478Z,8.40
2023-05-15T23:46:59.319Z,7.93
2023-05-15T23:49:27.503Z,7.40
2023-05-15T23:51:54.553Z,6.60
2023-05-15T23:54:21.953Z,8.82
2023-05-15T23:56:49.056Z,7.20
2023-05-15T23:59:16.328Z,6.88
